NFFN/NAN METAR and TAF weather

Enter ICAO airport designator
Station Type Date Time Source
NFFN METAR 2020/01/28 11:00 UTC NOAA

NFFN 281100Z 16004KT 9999 FEW030 26/23 Q1010 NOSIG


Station Type Date Time Source
NFFN Decoded METAR 2020/01/28 11:00 UTC NOAA

Nandi, Fiji (NFFN) 17-45S 177-27E 18M
Jan 28, 2020 - 06:00 AM EST / 2020.01.28 1100 UTC
Wind: from the SSE (160 degrees) at 5 MPH (4 KT):0
Visibility: greater than 7 mile(s):0
Sky conditions: mostly clear
Temperature: 78 F (26 C)
Dew Point: 73 F (23 C)
Relative Humidity: 83%
Pressure (altimeter): 29.83 in. Hg (1010 hPa)
ob: NFFN 281100Z 16004KT 9999 FEW030 26/23 Q1010 NOSIG
cycle: 11

Station Type Date Time Source
NFFN TAF 2020/01/28 12:21 UTC NOAA

TAF NFFN 281112Z 2812/2912 17005KT 9999 FEW028
BECMG 2822/2824 31010KT PROB40
TEMPO 2903/2907 5000 SHRA BKN015
BECMG 2904/2906 15006KT

Example: see airport list